Time;durP1;ratioP1;P1;durP2;ratioP2;P2;SDS_P1;SDS_P2;PMS_P1;PMS_P2;Temp;Humidity;BMP_temperature;BMP_pressure;BME280_temperature;BME280_humidity;BME280_pressure;Samples;Min_cycle;Max_cycle;Signal;HPM_P1;HPM_P2
2022/07/14 00:01:12;;;;;;;5.35;1.80;;;21.30;99.90;;;;;;4121139;28;20532;-69
2022/07/14 00:03:13;;;;;;;3.17;1.42;;;21.30;99.90;;;;;;4128859;28;20030;-69
2022/07/14 00:05:13;;;;;;;4.38;1.55;;;21.30;99.80;;;;;;4119596;28;20390;-70
2022/07/14 00:07:14;;;;;;;5.53;1.80;;;21.30;99.90;;;;;;4105866;28;20090;-69
2022/07/14 00:09:15;;;;;;;4.97;1.83;;;21.30;99.90;;;;;;4122030;28;20045;-69
2022/07/14 00:11:15;;;;;;;4.30;1.50;;;21.30;99.80;;;;;;4127476;28;20460;-69
2022/07/14 00:13:16;;;;;;;6.53;1.92;;;21.30;99.90;;;;;;4129043;28;20371;-70
2022/07/14 00:15:17;;;;;;;4.43;1.60;;;21.30;99.90;;;;;;4128348;28;20402;-70
2022/07/14 00:17:17;;;;;;;6.22;2.05;;;21.20;99.90;;;;;;4128273;28;20026;-69
2022/07/14 00:19:18;;;;;;;4.40;1.42;;;21.20;99.90;;;;;;4127384;28;20030;-69
2022/07/14 00:21:19;;;;;;;8.90;2.00;;;21.20;99.90;;;;;;4128516;28;20109;-69
2022/07/14 00:23:24;;;;;;;8.18;1.90;;;21.10;99.90;;;;;;4128949;28;20113;-69
2022/07/14 00:25:25;;;;;;;5.35;1.98;;;21.10;99.90;;;;;;4124672;28;20131;-69
2022/07/14 00:27:26;;;;;;;5.80;1.92;;;21.10;99.90;;;;;;4124783;28;20213;-69
2022/07/14 00:29:26;;;;;;;6.03;1.88;;;21.10;99.90;;;;;;4126561;28;20070;-69
2022/07/14 00:31:27;;;;;;;5.00;1.77;;;21.00;99.90;;;;;;4128425;28;20048;-70
2022/07/14 00:33:29;;;;;;;5.75;1.75;;;21.00;99.90;;;;;;4124784;28;20034;-69
2022/07/14 00:35:30;;;;;;;3.72;1.25;;;20.90;99.90;;;;;;4125918;28;20035;-69
2022/07/14 00:37:30;;;;;;;4.70;1.67;;;20.90;99.90;;;;;;4125869;28;20490;-69
2022/07/14 00:39:54;;;;;;;4.82;1.90;;;20.80;99.90;;;;;;4125195;28;20129;-69
2022/07/14 00:41:52;;;;;;;6.38;1.58;;;20.80;99.90;;;;;;4125173;28;20062;-69
2022/07/14 00:43:52;;;;;;;7.70;1.83;;;20.80;99.90;;;;;;4126517;28;20042;-69
2022/07/14 00:45:53;;;;;;;7.47;1.60;;;20.80;99.90;;;;;;4126543;28;20046;-69
2022/07/14 00:47:54;;;;;;;5.60;1.85;;;20.80;99.90;;;;;;4128469;28;20050;-69
2022/07/14 00:49:55;;;;;;;4.82;1.75;;;20.80;99.90;;;;;;4127845;28;20409;-69
2022/07/14 00:51:56;;;;;;;5.22;1.95;;;20.80;99.90;;;;;;4127366;28;20674;-69
2022/07/14 00:53:56;;;;;;;4.28;1.50;;;20.80;99.90;;;;;;4127961;28;20033;-69
2022/07/14 00:55:57;;;;;;;3.70;1.65;;;20.70;99.90;;;;;;4127165;28;20114;-69
2022/07/14 00:57:58;;;;;;;2.95;1.30;;;20.70;99.90;;;;;;4122942;28;20027;-69
2022/07/14 00:59:58;;;;;;;4.55;1.67;;;20.70;99.90;;;;;;4127808;28;20174;-69
2022/07/14 01:01:59;;;;;;;4.40;1.50;;;20.70;99.90;;;;;;4127085;28;20088;-69
2022/07/14 01:03:59;;;;;;;5.63;1.77;;;20.70;99.90;;;;;;4126493;28;20046;-69
2022/07/14 01:06:00;;;;;;;6.63;1.60;;;20.70;99.90;;;;;;4127085;28;20041;-69
2022/07/14 01:08:01;;;;;;;6.15;1.60;;;20.70;99.90;;;;;;4124002;28;20104;-69
2022/07/14 01:10:01;;;;;;;5.90;1.80;;;20.60;99.90;;;;;;4127578;28;20146;-69
2022/07/14 01:12:02;;;;;;;4.40;1.40;;;20.60;99.90;;;;;;4126877;28;20486;-69
2022/07/14 01:14:03;;;;;;;5.68;1.85;;;20.60;99.90;;;;;;4127273;28;20033;-69
2022/07/14 01:16:05;;;;;;;10.47;2.17;;;20.60;99.90;;;;;;4110123;28;20074;-69
2022/07/14 01:18:06;;;;;;;7.15;1.55;;;20.60;99.90;;;;;;4124983;28;20037;-67
2022/07/14 01:20:08;;;;;;;5.00;1.85;;;20.60;99.90;;;;;;4126785;28;20117;-69
2022/07/14 01:22:09;;;;;;;6.57;2.25;;;20.60;99.90;;;;;;4129202;28;20041;-69
2022/07/14 01:24:09;;;;;;;5.95;1.67;;;20.60;99.90;;;;;;4127313;28;20046;-69
2022/07/14 01:26:10;;;;;;;5.72;1.52;;;20.60;99.90;;;;;;4125824;28;20030;-69
2022/07/14 01:28:11;;;;;;;5.10;1.85;;;20.60;99.90;;;;;;4124664;28;20026;-68
2022/07/14 01:30:12;;;;;;;6.78;2.17;;;20.60;99.90;;;;;;4123011;28;20053;-68
2022/07/14 01:32:12;;;;;;;5.78;1.70;;;20.50;99.90;;;;;;4124283;28;20038;-68
2022/07/14 01:34:13;;;;;;;6.43;2.03;;;20.50;99.90;;;;;;4126552;28;20038;-69
2022/07/14 01:36:13;;;;;;;6.32;1.75;;;20.50;99.90;;;;;;4125381;28;20034;-69
2022/07/14 01:38:15;;;;;;;3.83;1.67;;;20.50;99.90;;;;;;4125116;28;20085;-69
2022/07/14 01:40:16;;;;;;;6.63;1.58;;;20.50;99.90;;;;;;4126714;28;20037;-69
2022/07/14 01:42:16;;;;;;;6.10;1.58;;;20.50;99.90;;;;;;4126341;28;20042;-69
2022/07/14 01:44:17;;;;;;;5.40;1.60;;;20.40;99.90;;;;;;4127286;28;20069;-69
2022/07/14 01:46:17;;;;;;;4.28;1.60;;;20.40;99.90;;;;;;4126701;28;20120;-69
2022/07/14 01:48:18;;;;;;;6.00;2.05;;;20.40;99.90;;;;;;4125465;28;20034;-69
2022/07/14 01:50:19;;;;;;;6.45;1.90;;;20.40;99.90;;;;;;4127476;28;20038;-69
2022/07/14 01:52:19;;;;;;;6.50;1.83;;;20.40;99.90;;;;;;4127475;28;20038;-69
2022/07/14 01:54:20;;;;;;;4.10;1.50;;;20.30;99.90;;;;;;4127752;28;20053;-69
2022/07/14 01:56:22;;;;;;;7.72;1.70;;;20.40;99.90;;;;;;4125979;28;20061;-69
2022/07/14 01:58:22;;;;;;;5.03;1.63;;;20.30;99.90;;;;;;4124852;28;20038;-69
2022/07/14 02:00:23;;;;;;;6.22;1.55;;;20.30;99.90;;;;;;4125173;28;20448;-69
2022/07/14 02:02:24;;;;;;;5.47;1.63;;;20.30;99.90;;;;;;4125483;28;20443;-69
2022/07/14 02:04:24;;;;;;;9.57;2.00;;;20.30;99.90;;;;;;4126410;28;20042;-69
2022/07/14 02:06:25;;;;;;;6.28;1.67;;;20.30;99.90;;;;;;4125675;28;20533;-69
2022/07/14 02:08:26;;;;;;;5.28;1.60;;;20.30;99.90;;;;;;4125493;28;20101;-69
2022/07/14 02:12:46;;;;;;;6.50;1.80;;;20.20;99.90;;;;;;4126328;28;20035;-69
2022/07/14 02:14:47;;;;;;;4.70;1.67;;;20.20;99.90;;;;;;4124591;28;20046;-69
2022/07/14 02:16:47;;;;;;;6.55;1.73;;;20.20;99.90;;;;;;4125632;28;20065;-69
2022/07/14 02:18:49;;;;;;;4.40;1.70;;;20.20;99.90;;;;;;4125405;28;20034;-69
2022/07/14 02:20:49;;;;;;;4.97;1.98;;;20.10;99.90;;;;;;4125959;28;20062;-69
2022/07/14 02:22:50;;;;;;;7.95;2.22;;;20.10;99.90;;;;;;4126699;28;20041;-69
2022/07/14 02:24:50;;;;;;;4.78;1.63;;;20.10;99.90;;;;;;4127376;28;20120;-69
2022/07/14 02:26:51;;;;;;;6.70;2.03;;;20.00;99.90;;;;;;4124871;28;20049;-69
2022/07/14 02:28:53;;;;;;;10.15;1.90;;;20.00;99.90;;;;;;4126430;28;20125;-69
2022/07/14 02:30:53;;;;;;;3.92;1.67;;;20.00;99.90;;;;;;4128041;28;20065;-69
2022/07/14 02:32:54;;;;;;;3.97;1.70;;;20.00;99.90;;;;;;4126367;28;20085;-69
2022/07/14 02:34:54;;;;;;;6.75;2.00;;;20.00;99.90;;;;;;4127721;28;20054;-69
2022/07/14 02:36:55;;;;;;;4.55;1.70;;;20.00;99.90;;;;;;4125717;28;20030;-69
2022/07/14 02:38:56;;;;;;;6.38;2.17;;;19.90;99.90;;;;;;4127150;28;20038;-69
2022/07/14 02:40:57;;;;;;;5.63;1.92;;;19.90;99.90;;;;;;4127401;28;20141;-69
2022/07/14 02:42:57;;;;;;;4.47;1.50;;;19.90;99.90;;;;;;4128070;28;20169;-69
2022/07/14 02:44:58;;;;;;;6.47;1.90;;;19.90;99.90;;;;;;4127772;28;20023;-69
2022/07/14 02:46:58;;;;;;;4.50;1.63;;;19.90;99.90;;;;;;4126513;28;20069;-69
2022/07/14 02:48:59;;;;;;;8.77;2.00;;;19.90;99.90;;;;;;4128801;28;20026;-69
2022/07/14 02:51:02;;;;;;;4.80;1.80;;;19.90;99.90;;;;;;4130416;28;20061;-69
2022/07/14 02:53:03;;;;;;;3.75;1.88;;;19.80;99.90;;;;;;4130784;28;20057;-69
2022/07/14 02:55:05;;;;;;;5.90;1.70;;;19.80;99.90;;;;;;4130362;28;20070;-72
2022/07/14 02:57:05;;;;;;;7.65;2.25;;;19.80;99.90;;;;;;4130030;28;20069;-69
2022/07/14 02:59:07;;;;;;;4.80;1.73;;;19.80;99.90;;;;;;4128605;28;20042;-69
2022/07/14 03:01:09;;;;;;;7.33;2.27;;;19.80;99.90;;;;;;4125432;28;20492;-69
2022/07/14 03:03:09;;;;;;;7.25;2.42;;;19.80;99.90;;;;;;4130789;28;20262;-69
2022/07/14 03:05:11;;;;;;;5.63;1.90;;;19.70;99.90;;;;;;4130063;28;20033;-72
2022/07/14 03:07:11;;;;;;;5.60;1.77;;;19.70;99.90;;;;;;4128049;28;20030;-69
2022/07/14 03:09:12;;;;;;;7.32;2.22;;;19.70;99.90;;;;;;4128057;28;20081;-69
2022/07/14 03:11:13;;;;;;;4.40;1.70;;;19.70;99.90;;;;;;4130255;28;20105;-69
2022/07/14 03:13:13;;;;;;;5.40;1.88;;;19.70;99.90;;;;;;4130394;28;20560;-69
2022/07/14 03:15:14;;;;;;;5.85;1.70;;;19.70;99.90;;;;;;4130260;28;20042;-70
2022/07/14 03:17:16;;;;;;;5.97;1.73;;;19.70;99.90;;;;;;4127672;28;20031;-69
2022/07/14 03:19:17;;;;;;;7.50;1.90;;;19.70;99.90;;;;;;4127816;28;20113;-68
2022/07/14 03:21:17;;;;;;;5.40;2.28;;;19.70;99.90;;;;;;4130018;28;20136;-69
2022/07/14 03:23:20;;;;;;;5.05;1.70;;;19.70;99.90;;;;;;4130268;28;20035;-69
2022/07/14 03:25:21;;;;;;;8.50;1.67;;;19.60;99.90;;;;;;4129569;28;20034;-69
2022/07/14 03:27:22;;;;;;;5.88;2.00;;;19.60;99.90;;;;;;4127835;28;20121;-69
2022/07/14 03:29:23;;;;;;;4.70;1.52;;;19.60;99.90;;;;;;4129792;28;20034;-69
2022/07/14 03:31:24;;;;;;;4.78;1.70;;;19.70;99.90;;;;;;4129791;28;20031;-69
2022/07/14 03:33:25;;;;;;;6.70;1.98;;;19.60;99.90;;;;;;4130064;28;20054;-69
2022/07/14 03:35:26;;;;;;;6.82;1.90;;;19.60;99.90;;;;;;4129814;28;20406;-69
2022/07/14 03:37:26;;;;;;;7.55;1.83;;;19.70;99.90;;;;;;4129647;28;20031;-69
2022/07/14 03:39:27;;;;;;;6.90;2.47;;;19.70;99.90;;;;;;4129141;28;20050;-69
2022/07/14 03:41:28;;;;;;;5.85;1.98;;;19.70;99.90;;;;;;4129825;28;20030;-69
2022/07/14 03:43:29;;;;;;;7.60;2.00;;;19.70;99.90;;;;;;4129941;28;20049;-69
2022/07/14 03:45:29;;;;;;;6.25;2.08;;;19.70;99.90;;;;;;4129370;28;20571;-69
2022/07/14 03:47:30;;;;;;;5.43;1.88;;;19.70;99.90;;;;;;4129290;28;20114;-69
2022/07/14 03:49:30;;;;;;;4.43;1.83;;;19.70;99.90;;;;;;4128274;28;20523;-69
2022/07/14 03:51:31;;;;;;;4.25;1.88;;;19.70;99.90;;;;;;4129668;28;20105;-69
2022/07/14 03:53:32;;;;;;;6.57;2.13;;;19.60;99.90;;;;;;4129993;28;20046;-69
2022/07/14 03:55:33;;;;;;;5.70;1.85;;;19.70;99.90;;;;;;4129023;28;20038;-69
2022/07/14 03:57:33;;;;;;;3.75;1.65;;;19.70;99.90;;;;;;4128936;28;20035;-70
2022/07/14 03:59:40;;;;;;;8.15;2.00;;;19.60;99.90;;;;;;4128843;28;20096;-70
2022/07/14 04:01:41;;;;;;;3.50;1.52;;;19.60;99.90;;;;;;4136823;28;20046;-69
2022/07/14 04:03:42;;;;;;;7.05;2.08;;;19.60;99.90;;;;;;4129564;28;20038;-69
2022/07/14 04:05:43;;;;;;;4.18;1.90;;;19.60;99.90;;;;;;4129272;28;20585;-69
2022/07/14 04:07:43;;;;;;;7.95;2.45;;;19.60;99.90;;;;;;4126666;28;20027;-69
2022/07/14 04:09:44;;;;;;;5.35;2.38;;;19.60;99.90;;;;;;4129719;28;20041;-69
2022/07/14 04:11:45;;;;;;;6.05;1.83;;;19.60;99.90;;;;;;4128846;28;20094;-69
2022/07/14 04:13:45;;;;;;;8.45;2.25;;;19.60;99.90;;;;;;4129543;28;20453;-67
2022/07/14 04:15:46;;;;;;;8.25;2.35;;;19.60;99.90;;;;;;4110693;28;20033;-69
2022/07/14 04:17:46;;;;;;;7.00;2.35;;;19.60;99.90;;;;;;4124347;28;20034;-69
2022/07/14 04:19:47;;;;;;;7.07;2.45;;;19.60;99.90;;;;;;4129497;28;20474;-69
2022/07/14 04:21:48;;;;;;;5.38;2.00;;;19.60;99.90;;;;;;4128678;28;20501;-69
2022/07/14 04:23:48;;;;;;;5.97;1.58;;;19.60;99.90;;;;;;4129484;28;20026;-69
2022/07/14 04:25:49;;;;;;;8.10;2.22;;;19.60;99.90;;;;;;4129085;28;20026;-69
2022/07/14 04:27:50;;;;;;;5.72;2.20;;;19.60;99.90;;;;;;4127928;28;20118;-69
2022/07/14 04:29:51;;;;;;;6.80;2.17;;;19.60;99.90;;;;;;4127726;28;20034;-69
2022/07/14 04:31:52;;;;;;;5.35;1.98;;;19.60;99.90;;;;;;4132787;28;20094;-69
2022/07/14 04:33:52;;;;;;;9.68;2.25;;;19.60;99.90;;;;;;4129442;28;20105;-69
2022/07/14 04:35:53;;;;;;;7.10;2.22;;;19.60;99.90;;;;;;4128784;28;20101;-69
2022/07/14 04:37:53;;;;;;;9.93;2.08;;;19.60;99.90;;;;;;4127944;28;20030;-69
2022/07/14 04:39:54;;;;;;;10.52;2.47;;;19.60;99.90;;;;;;4129229;28;20034;-69
2022/07/14 04:41:55;;;;;;;7.80;1.88;;;19.60;99.90;;;;;;4128773;28;20524;-69
2022/07/14 04:43:56;;;;;;;7.75;1.92;;;19.60;99.90;;;;;;4128792;28;20038;-69
2022/07/14 04:45:56;;;;;;;7.93;2.20;;;19.60;99.90;;;;;;4126553;28;20049;-70
2022/07/14 04:47:57;;;;;;;6.25;1.83;;;19.60;99.90;;;;;;4126486;28;20043;-69
2022/07/14 04:52:17;;;;;;;7.45;2.00;;;19.50;99.90;;;;;;4128729;28;20038;-69
2022/07/14 04:54:17;;;;;;;7.97;2.10;;;19.50;99.90;;;;;;4129883;28;20145;-69
2022/07/14 04:56:18;;;;;;;7.72;1.92;;;19.50;99.90;;;;;;4128866;28;20044;-69
2022/07/14 04:58:19;;;;;;;9.82;2.22;;;19.50;99.90;;;;;;4125539;28;20132;-69
2022/07/14 05:00:20;;;;;;;7.07;2.38;;;19.60;99.90;;;;;;4127211;28;20039;-69
2022/07/14 05:02:21;;;;;;;6.43;1.98;;;19.50;99.90;;;;;;4128400;28;20417;-69
2022/07/14 05:04:22;;;;;;;7.78;2.13;;;19.50;99.90;;;;;;4129069;28;20080;-69
2022/07/14 05:06:23;;;;;;;6.70;2.00;;;19.50;99.90;;;;;;4126706;28;20415;-69
2022/07/14 05:08:23;;;;;;;9.38;2.25;;;19.60;99.90;;;;;;4128105;28;20038;-69
2022/07/14 05:10:24;;;;;;;6.65;2.20;;;19.40;99.90;;;;;;4127596;28;20497;-69
2022/07/14 05:12:25;;;;;;;6.95;2.42;;;19.40;99.90;;;;;;4128416;28;20034;-69
2022/07/14 05:14:25;;;;;;;6.70;2.13;;;19.50;99.90;;;;;;4128931;28;20034;-69
2022/07/14 05:16:26;;;;;;;6.28;2.20;;;19.50;99.90;;;;;;4125106;28;20434;-69
2022/07/14 05:18:26;;;;;;;10.00;1.92;;;19.40;99.90;;;;;;4127463;28;20129;-69
2022/07/14 05:20:27;;;;;;;7.15;2.20;;;19.40;99.90;;;;;;4128476;28;20045;-69
2022/07/14 05:22:33;;;;;;;6.85;2.25;;;19.30;99.90;;;;;;4127480;28;20512;-70
2022/07/14 05:24:34;;;;;;;9.43;2.50;;;19.10;99.90;;;;;;4132522;28;20030;-69
2022/07/14 05:26:35;;;;;;;5.97;1.75;;;19.10;99.90;;;;;;4130198;28;20030;-69
2022/07/14 05:28:36;;;;;;;7.63;1.90;;;19.00;99.90;;;;;;4127203;28;20043;-69
2022/07/14 05:30:37;;;;;;;9.43;2.65;;;19.00;99.90;;;;;;4117718;28;20114;-69
2022/07/14 05:32:38;;;;;;;8.73;2.63;;;18.90;99.90;;;;;;4128598;28;20089;-69
2022/07/14 05:34:42;;;;;;;10.30;2.50;;;18.90;99.90;;;;;;4128348;28;20034;-69
2022/07/14 05:36:43;;;;;;;5.32;2.30;;;18.80;99.90;;;;;;4126261;28;20552;-69
2022/07/14 05:38:44;;;;;;;8.27;2.22;;;18.80;99.90;;;;;;4127456;28;20030;-69
2022/07/14 05:40:45;;;;;;;8.10;2.40;;;18.70;99.90;;;;;;4128078;28;20031;-69
2022/07/14 05:42:45;;;;;;;6.05;2.00;;;18.70;99.90;;;;;;4128533;28;20058;-69
2022/07/14 05:44:46;;;;;;;8.73;2.45;;;18.70;99.90;;;;;;4126808;28;20038;-67
2022/07/14 05:46:46;;;;;;;5.78;2.10;;;18.90;99.90;;;;;;4120969;28;20035;-69
2022/07/14 05:48:47;;;;;;;15.90;2.17;;;18.90;99.90;;;;;;4126332;28;20045;-69
2022/07/14 05:50:47;;;;;;;10.65;2.67;;;19.10;99.90;;;;;;4127693;28;20093;-68
2022/07/14 05:52:48;;;;;;;8.48;2.05;;;19.20;99.90;;;;;;4129630;28;20030;-69
2022/07/14 05:54:51;;;;;;;9.43;2.40;;;19.20;99.90;;;;;;4130278;28;20038;-69
2022/07/14 05:56:51;;;;;;;7.55;2.15;;;19.30;99.90;;;;;;4122906;28;20084;-69
2022/07/14 05:58:52;;;;;;;10.10;2.58;;;19.30;99.90;;;;;;4126503;28;20077;-69
2022/07/14 06:00:53;;;;;;;7.38;2.15;;;19.40;99.90;;;;;;4119279;28;20065;-70
2022/07/14 06:02:53;;;;;;;12.02;3.00;;;19.50;99.90;;;;;;4129719;28;20093;-70
2022/07/14 06:04:54;;;;;;;11.75;2.53;;;19.60;99.90;;;;;;4119323;28;20494;-69
2022/07/14 06:06:54;;;;;;;7.65;2.08;;;19.80;99.90;;;;;;4127549;28;20250;-70
2022/07/14 06:08:55;;;;;;;6.32;2.03;;;20.20;99.90;;;;;;4130913;28;20049;-69
2022/07/14 06:10:57;;;;;;;7.55;1.90;;;20.70;99.90;;;;;;4128756;28;20400;-70
2022/07/14 06:12:57;;;;;;;10.45;2.20;;;21.10;99.90;;;;;;4129320;28;20038;-70
2022/07/14 06:14:58;;;;;;;8.45;2.30;;;21.60;99.90;;;;;;4128794;28;20446;-71
2022/07/14 06:16:59;;;;;;;9.57;2.90;;;21.90;99.90;;;;;;4096527;28;20032;-72
2022/07/14 06:18:59;;;;;;;9.05;2.30;;;22.10;98.70;;;;;;4128603;28;20044;-71
2022/07/14 06:21:00;;;;;;;10.60;2.67;;;22.20;98.70;;;;;;4129000;28;20078;-71
2022/07/14 06:23:01;;;;;;;8.15;1.98;;;22.30;97.90;;;;;;4127882;28;20034;-71
2022/07/14 06:25:01;;;;;;;11.43;2.97;;;22.60;99.30;;;;;;4129381;28;20030;-71
2022/07/14 06:27:02;;;;;;;8.57;2.25;;;23.00;99.20;;;;;;4129260;28;20037;-71
2022/07/14 06:29:03;;;;;;;5.28;1.73;;;23.00;97.80;;;;;;4127868;28;20030;-71
2022/07/14 06:31:04;;;;;;;7.80;2.30;;;23.50;97.60;;;;;;4128160;28;20031;-72
2022/07/14 06:33:04;;;;;;;4.30;1.75;;;23.90;97.50;;;;;;4128853;28;20030;-72
2022/07/14 06:35:14;;;;;;;6.38;1.90;;;24.30;96.80;;;;;;4131195;28;20351;-73
2022/07/14 06:37:15;;;;;;;6.60;1.50;;;24.60;95.20;;;;;;4128053;28;20034;-72
2022/07/14 06:39:16;;;;;;;6.85;2.20;;;24.90;94.90;;;;;;4131291;28;20034;-72
2022/07/14 06:41:20;;;;;;;6.45;1.52;;;25.20;93.80;;;;;;4130891;28;20039;-70
2022/07/14 06:43:22;;;;;;;7.88;2.17;;;25.40;92.80;;;;;;4131093;28;20065;-72
2022/07/14 06:45:22;;;;;;;7.97;2.80;;;25.40;91.50;;;;;;4115282;28;20425;-72
2022/07/14 06:47:23;;;;;;;8.70;2.10;;;25.20;92.20;;;;;;4129649;28;20340;-72
2022/07/14 06:49:24;;;;;;;10.57;2.42;;;25.00;92.00;;;;;;4129185;28;20038;-72
2022/07/14 06:51:26;;;;;;;7.57;2.60;;;25.00;91.50;;;;;;4132483;28;20117;-72
2022/07/14 06:53:27;;;;;;;6.32;1.60;;;25.00;91.60;;;;;;4133315;28;20065;-74
2022/07/14 06:55:28;;;;;;;8.95;2.63;;;25.20;92.20;;;;;;4140049;28;20090;-76
2022/07/14 06:57:28;;;;;;;6.93;1.80;;;24.70;91.50;;;;;;4139671;28;20018;-76
2022/07/14 06:59:29;;;;;;;6.82;1.88;;;25.00;94.10;;;;;;4138665;28;20048;-76
2022/07/14 07:01:30;;;;;;;6.45;1.73;;;25.10;93.50;;;;;;4130111;28;20060;-76
2022/07/14 07:03:30;;;;;;;8.40;2.20;;;25.20;92.70;;;;;;4129437;28;20038;-76
2022/07/14 07:07:51;;;;;;;7.25;2.17;;;24.60;91.10;;;;;;4132591;28;20084;-76
2022/07/14 07:09:52;;;;;;;8.30;2.17;;;24.50;91.40;;;;;;4135845;28;20042;-75
2022/07/14 07:11:53;;;;;;;6.70;2.25;;;24.00;91.90;;;;;;4136344;28;20038;-75
2022/07/14 07:13:54;;;;;;;7.55;2.00;;;24.10;92.30;;;;;;4135238;28;20054;-75
2022/07/14 07:15:54;;;;;;;6.80;1.98;;;23.80;92.20;;;;;;4130664;28;20033;-75
2022/07/14 07:17:55;;;;;;;6.18;1.65;;;23.60;92.90;;;;;;4133003;28;20180;-75
2022/07/14 07:19:55;;;;;;;6.60;1.60;;;23.70;93.10;;;;;;4133219;28;20026;-75
2022/07/14 07:21:57;;;;;;;9.57;2.25;;;23.70;92.80;;;;;;4132019;28;20076;-75
2022/07/14 07:23:57;;;;;;;6.22;1.92;;;23.50;92.60;;;;;;4132094;28;20500;-75
2022/07/14 07:25:58;;;;;;;8.65;1.98;;;23.40;93.50;;;;;;4129152;28;20125;-75
2022/07/14 07:27:59;;;;;;;6.07;1.80;;;23.60;93.40;;;;;;4135193;28;20449;-75
2022/07/14 07:30:00;;;;;;;7.05;1.80;;;23.90;95.20;;;;;;4134062;28;20031;-75
2022/07/14 07:32:01;;;;;;;5.47;1.65;;;23.80;92.20;;;;;;4132507;28;20042;-75
2022/07/14 07:34:02;;;;;;;5.40;2.00;;;24.00;92.60;;;;;;4132602;28;20034;-75
2022/07/14 07:36:03;;;;;;;7.20;1.95;;;24.10;93.60;;;;;;4132246;28;20042;-76
2022/07/14 07:38:04;;;;;;;6.85;1.70;;;24.10;92.30;;;;;;4129334;28;20035;-75
2022/07/14 07:40:05;;;;;;;8.85;2.42;;;24.20;92.20;;;;;;4131056;28;20064;-76
2022/07/14 07:42:06;;;;;;;8.38;2.00;;;24.10;91.40;;;;;;4131864;28;20035;-74
2022/07/14 07:44:06;;;;;;;7.78;2.30;;;23.70;91.50;;;;;;4113468;28;20031;-74
2022/07/14 07:46:07;;;;;;;7.88;2.28;;;23.50;91.70;;;;;;4128815;28;20057;-74
2022/07/14 07:48:08;;;;;;;4.10;1.63;;;23.40;92.20;;;;;;4130064;28;20078;-74
2022/07/14 07:50:10;;;;;;;7.90;2.15;;;23.50;94.60;;;;;;4128044;28;20045;-75
2022/07/14 07:52:11;;;;;;;3.80;1.50;;;23.60;93.00;;;;;;4129448;28;20096;-74
2022/07/14 07:54:11;;;;;;;6.40;1.70;;;23.80;93.30;;;;;;4116084;28;20022;-72
2022/07/14 07:56:13;;;;;;;4.47;1.70;;;24.00;93.00;;;;;;4122860;28;20409;-73
2022/07/14 07:58:14;;;;;;;3.83;1.58;;;24.20;92.20;;;;;;4117449;28;20034;-74
2022/07/14 08:00:15;;;;;;;4.80;1.63;;;24.40;91.60;;;;;;4133768;28;20077;-74
2022/07/14 08:02:16;;;;;;;5.55;1.60;;;24.50;90.50;;;;;;4130088;28;20074;-74
2022/07/14 08:04:17;;;;;;;4.60;1.58;;;24.70;90.50;;;;;;4121606;28;20128;-74
2022/07/14 08:06:18;;;;;;;4.00;1.40;;;24.70;90.20;;;;;;4127214;28;20042;-75
2022/07/14 08:08:19;;;;;;;2.92;1.52;;;24.60;84.10;;;;;;4121583;28;20071;-74
2022/07/14 08:10:20;;;;;;;2.90;1.38;;;24.70;88.60;;;;;;4131567;28;20038;-72
2022/07/14 08:12:21;;;;;;;4.03;1.42;;;24.70;87.80;;;;;;4131664;28;20117;-75
2022/07/14 08:16:45;;;;;;;4.55;1.73;;;24.70;87.70;;;;;;4104242;28;20034;-73
2022/07/14 08:18:46;;;;;;;5.57;1.60;;;24.70;87.60;;;;;;4124950;28;20122;-75
2022/07/14 08:20:49;;;;;;;4.13;1.67;;;24.70;90.50;;;;;;4131941;28;20034;-75
2022/07/14 08:22:51;;;;;;;;;;;24.90;90.30;;;;;;4130102;28;20367;-74
2022/07/14 08:24:53;;;;;;;4.57;1.40;;;24.90;87.50;;;;;;4128403;28;19992;-75
2022/07/14 08:26:54;;;;;;;3.35;1.10;;;24.90;88.30;;;;;;4127125;28;20034;-74
2022/07/14 08:28:54;;;;;;;6.50;2.40;;;24.90;84.90;;;;;;4124958;28;20052;-75
2022/07/14 08:30:56;;;;;;;4.55;1.70;;;24.70;88.80;;;;;;4118694;28;20038;-75
2022/07/14 08:32:56;;;;;;;4.35;1.70;;;24.80;87.80;;;;;;4126457;28;20038;-75
2022/07/14 08:34:59;;;;;;;4.53;1.83;;;24.90;87.80;;;;;;4114030;28;20046;-74
2022/07/14 08:37:00;;;;;;;3.25;1.10;;;25.00;87.60;;;;;;4129107;28;20038;-74
2022/07/14 08:39:01;;;;;;;4.15;1.40;;;25.00;84.80;;;;;;4126731;28;20030;-75
2022/07/14 08:41:02;;;;;;;4.60;1.52;;;25.00;86.40;;;;;;4126674;28;20114;-75
2022/07/14 08:43:03;;;;;;;4.30;1.42;;;25.10;88.20;;;;;;4130450;28;20049;-75
2022/07/14 08:45:09;;;;;;;4.18;1.50;;;25.10;83.40;;;;;;4129657;28;20070;-76
2022/07/14 08:47:10;;;;;;;3.60;1.63;;;25.10;83.80;;;;;;4128279;28;20477;-75
2022/07/14 08:49:10;;;;;;;4.18;2.05;;;25.20;85.30;;;;;;4114112;28;20095;-75
2022/07/14 08:51:11;;;;;;;3.80;1.63;;;25.30;85.30;;;;;;4124683;28;20042;-75
2022/07/14 08:53:13;;;;;;;2.20;1.10;;;25.30;80.80;;;;;;4124096;28;20462;-72
2022/07/14 08:55:16;;;;;;;5.35;2.05;;;25.20;79.20;;;;;;4123496;28;20490;-75
2022/07/14 08:57:17;;;;;;;6.22;1.70;;;25.20;85.10;;;;;;4123220;28;20084;-75
2022/07/14 08:59:18;;;;;;;5.90;1.42;;;25.40;81.10;;;;;;4124316;28;20049;-75
2022/07/14 09:01:18;;;;;;;3.28;1.00;;;25.30;76.80;;;;;;4119684;28;20063;-75
2022/07/14 09:03:19;;;;;;;2.60;1.25;;;25.30;80.60;;;;;;4126929;28;20038;-75
2022/07/14 09:05:20;;;;;;;3.58;1.40;;;25.40;80.50;;;;;;4125705;28;20627;-75
2022/07/14 09:07:36;;;;;;;3.70;1.35;;;25.40;80.30;;;;;;4125431;28;20486;-75
2022/07/14 09:09:38;;;;;;;3.20;1.25;;;25.40;79.70;;;;;;4124130;28;20034;-75
2022/07/14 09:11:55;;;;;;;4.28;1.50;;;25.30;82.00;;;;;;4125137;28;20056;-74
2022/07/14 09:14:08;;;;;;;3.40;1.35;;;25.30;79.30;;;;;;4121195;28;20022;-74
2022/07/14 09:16:14;;;;;;;4.32;1.63;;;25.40;82.10;;;;;;4121124;28;20497;-75
2022/07/14 09:18:23;;;;;;;5.22;1.88;;;25.40;83.40;;;;;;4125679;28;20486;-74
2022/07/14 09:20:29;;;;;;;4.43;1.67;;;25.40;82.30;;;;;;4126238;28;20053;-74
2022/07/14 09:22:32;;;;;;;3.45;1.48;;;25.50;83.10;;;;;;4123911;28;20485;-74
2022/07/14 09:24:33;;;;;;;3.50;1.48;;;25.40;79.30;;;;;;4112027;28;20483;-75
2022/07/14 09:26:46;;;;;;;6.57;1.40;;;25.60;82.60;;;;;;4124895;28;20023;-74
2022/07/14 09:28:47;;;;;;;;;;;25.50;79.40;;;;;;4122978;28;20155;-74
2022/07/14 09:30:48;;;;;;;6.43;1.50;;;25.20;76.70;;;;;;4125309;28;20469;-74
2022/07/14 09:33:07;;;;;;;7.47;1.70;;;25.10;77.60;;;;;;4127329;28;20031;-74
2022/07/14 09:35:09;;;;;;;5.68;1.50;;;24.90;80.60;;;;;;4122618;28;20805;-75
2022/07/14 09:37:13;;;;;;;2.72;0.93;;;25.20;81.20;;;;;;4124822;28;20038;-75
2022/07/14 09:39:14;;;;;;;5.72;1.58;;;25.10;78.10;;;;;;4126832;28;20030;-73
2022/07/14 09:41:14;;;;;;;2.08;0.98;;;25.20;77.70;;;;;;4126993;28;20031;-74
2022/07/14 09:43:16;;;;;;;3.90;1.13;;;25.30;79.30;;;;;;4126541;28;20101;-74
2022/07/14 09:45:19;;;;;;;6.00;1.27;;;25.40;75.30;;;;;;4122432;28;20038;-74
2022/07/14 09:47:20;;;;;;;3.13;0.95;;;25.40;75.70;;;;;;4124967;28;20478;-75
2022/07/14 09:49:24;;;;;;;5.30;1.55;;;25.40;75.80;;;;;;4125767;28;20034;-74
2022/07/14 09:51:24;;;;;;;4.72;1.65;;;25.10;76.70;;;;;;4125223;28;20411;-74
2022/07/14 09:53:33;;;;;;;3.90;1.20;;;25.00;74.40;;;;;;4125166;28;20462;-74
2022/07/14 09:55:33;;;;;;;5.00;1.48;;;25.10;75.90;;;;;;4127121;28;20084;-75
2022/07/14 09:57:39;;;;;;;4.10;1.40;;;25.10;76.50;;;;;;4124302;28;20030;-75
2022/07/14 09:59:49;;;;;;;3.92;1.20;;;25.10;82.90;;;;;;4133836;28;20081;-75
2022/07/14 10:01:50;;;;;;;4.35;1.40;;;25.40;81.00;;;;;;4131613;28;20036;-75
2022/07/14 10:03:56;;;;;;;4.28;1.35;;;25.40;79.70;;;;;;4131881;28;20066;-75
2022/07/14 10:05:59;;;;;;;4.50;1.30;;;25.60;78.90;;;;;;4128488;28;20112;-75
2022/07/14 10:08:03;;;;;;;5.57;1.42;;;25.70;76.90;;;;;;4128742;28;20122;-75
2022/07/14 10:10:12;;;;;;;5.03;1.35;;;25.80;75.30;;;;;;4131720;28;20445;-77
2022/07/14 10:12:13;;;;;;;3.92;1.00;;;25.90;77.20;;;;;;4130074;28;20027;-74
2022/07/14 10:14:16;;;;;;;5.78;1.20;;;25.90;78.20;;;;;;4130767;28;20069;-73
2022/07/14 10:16:17;;;;;;;3.80;1.27;;;26.00;78.80;;;;;;4129609;28;20121;-74
2022/07/14 10:18:20;;;;;;;2.55;1.20;;;26.10;79.70;;;;;;4130252;28;20085;-74
2022/07/14 10:20:21;;;;;;;4.43;1.23;;;26.10;77.90;;;;;;4131811;28;20482;-74
2022/07/14 10:22:21;;;;;;;3.85;1.35;;;26.30;78.60;;;;;;4128187;28;20041;-75
2022/07/14 10:24:23;;;;;;;3.75;1.30;;;26.30;78.50;;;;;;4131683;28;20026;-74
2022/07/14 10:26:24;;;;;;;2.78;1.20;;;26.40;79.80;;;;;;4131369;28;20040;-72
2022/07/14 10:28:26;;;;;;;6.10;1.50;;;26.30;71.90;;;;;;4133767;28;20133;-74
2022/07/14 10:30:49;;;;;;;1.77;0.70;;;26.40;76.20;;;;;;4131507;28;20045;-74
2022/07/14 10:33:01;;;;;;;2.70;0.85;;;26.40;70.70;;;;;;4090214;28;20260;-75
2022/07/14 10:35:35;;;;;;;2.22;0.75;;;26.40;72.60;;;;;;4131694;28;20041;-74
2022/07/14 10:37:54;;;;;;;2.88;0.82;;;26.30;72.50;;;;;;4132191;28;20030;-75
2022/07/14 10:40:12;;;;;;;6.35;1.10;;;26.30;70.60;;;;;;4133296;28;20444;-75
2022/07/14 10:42:21;;;;;;;3.30;0.95;;;26.30;76.70;;;;;;4129568;28;20031;-75
2022/07/14 10:44:31;;;;;;;3.42;0.90;;;26.30;77.20;;;;;;4131798;28;20041;-75